sensor_id;sensor_type;location;lat;lon;timestamp;pressure;altitude;pressure_sealevel;temperature;humidity
16544;BME280;8384;47.996;7.786;2023-02-23T00:01:20;98490.31;;;9.33;99.96
16544;BME280;8384;47.996;7.786;2023-02-23T00:03:46;98490.53;;;9.26;100.00
16544;BME280;8384;47.996;7.786;2023-02-23T00:06:14;98485.69;;;9.06;100.00
16544;BME280;8384;47.996;7.786;2023-02-23T00:08:39;98491.50;;;9.14;100.00
16544;BME280;8384;47.996;7.786;2023-02-23T00:11:07;98495.81;;;9.10;100.00
16544;BME280;8384;47.996;7.786;2023-02-23T00:13:34;98479.22;;;9.12;100.00
16544;BME280;8384;47.996;7.786;2023-02-23T00:16:10;98448.50;;;8.67;100.00
16544;BME280;8384;47.996;7.786;2023-02-23T00:18:37;98483.38;;;9.20;100.00
16544;BME280;8384;47.996;7.786;2023-02-23T00:21:14;98484.97;;;9.15;100.00
16544;BME280;8384;47.996;7.786;2023-02-23T00:23:41;98484.63;;;9.07;100.00
16544;BME280;8384;47.996;7.786;2023-02-23T00:26:07;98469.13;;;9.12;100.00
16544;BME280;8384;47.996;7.786;2023-02-23T00:28:32;98493.38;;;9.14;100.00
16544;BME280;8384;47.996;7.786;2023-02-23T00:31:01;98480.59;;;9.14;100.00
16544;BME280;8384;47.996;7.786;2023-02-23T00:33:26;98468.31;;;9.17;100.00
16544;BME280;8384;47.996;7.786;2023-02-23T00:35:54;98480.69;;;9.25;100.00
16544;BME280;8384;47.996;7.786;2023-02-23T00:38:19;98481.94;;;9.12;100.00
16544;BME280;8384;47.996;7.786;2023-02-23T00:40:44;98474.34;;;9.19;100.00
16544;BME280;8384;47.996;7.786;2023-02-23T00:43:10;98485.63;;;9.00;100.00
16544;BME280;8384;47.996;7.786;2023-02-23T00:45:35;98487.63;;;9.10;100.00
16544;BME280;8384;47.996;7.786;2023-02-23T00:48:01;98479.41;;;9.05;100.00
16544;BME280;8384;47.996;7.786;2023-02-23T00:50:27;98469.31;;;8.78;100.00
16544;BME280;8384;47.996;7.786;2023-02-23T00:52:55;98476.66;;;9.00;100.00
16544;BME280;8384;47.996;7.786;2023-02-23T00:55:23;98479.41;;;9.05;100.00
16544;BME280;8384;47.996;7.786;2023-02-23T00:57:49;98428.16;;;8.75;100.00
16544;BME280;8384;47.996;7.786;2023-02-23T01:00:14;98429.94;;;8.91;100.00
16544;BME280;8384;47.996;7.786;2023-02-23T01:02:47;98473.94;;;9.33;100.00
16544;BME280;8384;47.996;7.786;2023-02-23T01:05:12;98457.78;;;9.26;100.00
16544;BME280;8384;47.996;7.786;2023-02-23T01:07:38;98457.00;;;9.30;100.00
16544;BME280;8384;47.996;7.786;2023-02-23T01:10:05;98439.97;;;9.13;100.00
16544;BME280;8384;47.996;7.786;2023-02-23T01:12:47;98459.50;;;9.37;99.61
16544;BME280;8384;47.996;7.786;2023-02-23T01:15:14;98461.16;;;9.38;99.00
16544;BME280;8384;47.996;7.786;2023-02-23T01:17:40;98463.31;;;9.36;98.29
16544;BME280;8384;47.996;7.786;2023-02-23T01:20:08;98450.88;;;9.18;98.32
16544;BME280;8384;47.996;7.786;2023-02-23T01:22:45;98426.00;;;9.09;98.16
16544;BME280;8384;47.996;7.786;2023-02-23T01:25:11;98463.63;;;9.40;97.66
16544;BME280;8384;47.996;7.786;2023-02-23T01:27:37;98426.41;;;8.91;98.31
16544;BME280;8384;47.996;7.786;2023-02-23T01:30:03;98421.63;;;9.08;97.87
16544;BME280;8384;47.996;7.786;2023-02-23T01:32:29;98431.78;;;9.18;96.92
16544;BME280;8384;47.996;7.786;2023-02-23T01:34:54;98455.59;;;9.28;95.30
16544;BME280;8384;47.996;7.786;2023-02-23T01:37:19;98445.34;;;9.40;94.47
16544;BME280;8384;47.996;7.786;2023-02-23T01:39:45;98418.34;;;9.39;94.16
16544;BME280;8384;47.996;7.786;2023-02-23T01:42:13;98443.00;;;9.54;93.97
16544;BME280;8384;47.996;7.786;2023-02-23T01:47:04;98442.63;;;9.40;92.74
16544;BME280;8384;47.996;7.786;2023-02-23T01:49:31;98431.19;;;9.43;92.79
16544;BME280;8384;47.996;7.786;2023-02-23T01:52:02;98441.81;;;9.45;92.56
16544;BME280;8384;47.996;7.786;2023-02-23T01:54:32;98439.16;;;9.50;93.14
16544;BME280;8384;47.996;7.786;2023-02-23T01:57:02;98441.31;;;9.48;92.72
16544;BME280;8384;47.996;7.786;2023-02-23T01:59:34;98431.25;;;9.54;92.35
16544;BME280;8384;47.996;7.786;2023-02-23T02:02:01;98435.41;;;9.62;91.89
16544;BME280;8384;47.996;7.786;2023-02-23T02:04:29;98390.47;;;9.32;91.89
16544;BME280;8384;47.996;7.786;2023-02-23T02:06:58;98432.88;;;9.50;92.18
16544;BME280;8384;47.996;7.786;2023-02-23T02:09:25;98418.63;;;9.42;92.69
16544;BME280;8384;47.996;7.786;2023-02-23T02:11:52;98418.41;;;9.49;92.02
16544;BME280;8384;47.996;7.786;2023-02-23T02:14:26;98416.75;;;9.48;92.02
16544;BME280;8384;47.996;7.786;2023-02-23T02:17:09;98425.63;;;9.66;91.94
16544;BME280;8384;47.996;7.786;2023-02-23T02:28:41;98421.69;;;9.94;89.93
16544;BME280;8384;47.996;7.786;2023-02-23T02:37:11;98408.09;;;9.56;93.30
16544;BME280;8384;47.996;7.786;2023-02-23T02:43:06;98418.03;;;9.78;92.49
16544;BME280;8384;47.996;7.786;2023-02-23T02:50:46;98408.69;;;9.26;94.75
16544;BME280;8384;47.996;7.786;2023-02-23T02:56:02;98409.50;;;9.26;95.30
16544;BME280;8384;47.996;7.786;2023-02-23T02:58:30;98395.03;;;9.21;95.10
16544;BME280;8384;47.996;7.786;2023-02-23T03:00:55;98403.03;;;9.33;94.73
16544;BME280;8384;47.996;7.786;2023-02-23T03:03:47;98413.22;;;9.48;94.47
16544;BME280;8384;47.996;7.786;2023-02-23T03:06:38;98392.41;;;9.36;94.60
16544;BME280;8384;47.996;7.786;2023-02-23T03:09:40;98406.38;;;9.45;94.54
16544;BME280;8384;47.996;7.786;2023-02-23T03:12:56;98362.72;;;9.07;95.98
16544;BME280;8384;47.996;7.786;2023-02-23T03:16:06;98414.53;;;9.40;95.76
16544;BME280;8384;47.996;7.786;2023-02-23T03:19:12;98398.97;;;9.40;96.09
16544;BME280;8384;47.996;7.786;2023-02-23T03:22:20;98410.31;;;9.22;96.34
16544;BME280;8384;47.996;7.786;2023-02-23T03:25:09;98408.19;;;9.34;96.25
16544;BME280;8384;47.996;7.786;2023-02-23T03:28:11;98392.91;;;9.33;95.10
16544;BME280;8384;47.996;7.786;2023-02-23T03:36:55;98402.94;;;9.22;96.06
16544;BME280;8384;47.996;7.786;2023-02-23T03:39:55;98389.84;;;9.24;96.00
16544;BME280;8384;47.996;7.786;2023-02-23T03:42:43;98406.25;;;9.29;95.80
16544;BME280;8384;47.996;7.786;2023-02-23T03:45:28;98401.06;;;8.95;97.21
16544;BME280;8384;47.996;7.786;2023-02-23T03:48:14;98394.59;;;9.02;97.32
16544;BME280;8384;47.996;7.786;2023-02-23T03:51:03;98401.13;;;9.00;97.64
16544;BME280;8384;47.996;7.786;2023-02-23T03:56:57;98399.16;;;9.28;95.94
16544;BME280;8384;47.996;7.786;2023-02-23T03:59:48;98408.66;;;9.21;96.81
16544;BME280;8384;47.996;7.786;2023-02-23T04:02:36;98406.75;;;9.21;97.32
16544;BME280;8384;47.996;7.786;2023-02-23T04:05:22;98391.88;;;9.02;97.17
16544;BME280;8384;47.996;7.786;2023-02-23T04:08:08;98402.31;;;9.15;96.61
16544;BME280;8384;47.996;7.786;2023-02-23T04:11:01;98364.06;;;9.42;93.05
16544;BME280;8384;47.996;7.786;2023-02-23T04:13:50;98408.91;;;9.19;95.34
16544;BME280;8384;47.996;7.786;2023-02-23T04:16:19;98369.09;;;9.18;94.64
16544;BME280;8384;47.996;7.786;2023-02-23T04:18:44;98378.47;;;8.67;96.68
16544;BME280;8384;47.996;7.786;2023-02-23T04:21:10;98392.59;;;8.37;99.74
16544;BME280;8384;47.996;7.786;2023-02-23T04:23:36;98401.69;;;8.48;100.00
16544;BME280;8384;47.996;7.786;2023-02-23T04:26:04;98399.34;;;8.57;100.00
16544;BME280;8384;47.996;7.786;2023-02-23T04:28:29;98393.59;;;8.31;100.00
16544;BME280;8384;47.996;7.786;2023-02-23T04:30:55;98393.22;;;8.22;100.00
16544;BME280;8384;47.996;7.786;2023-02-23T04:33:20;98382.41;;;8.27;100.00
16544;BME280;8384;47.996;7.786;2023-02-23T04:35:46;98394.16;;;8.33;100.00
16544;BME280;8384;47.996;7.786;2023-02-23T04:38:12;98405.75;;;8.45;100.00
16544;BME280;8384;47.996;7.786;2023-02-23T04:40:37;98381.69;;;8.59;100.00
16544;BME280;8384;47.996;7.786;2023-02-23T04:43:02;98407.41;;;8.74;98.97
16544;BME280;8384;47.996;7.786;2023-02-23T04:45:28;98402.13;;;8.62;100.00
16544;BME280;8384;47.996;7.786;2023-02-23T04:47:53;98408.59;;;8.55;100.00
16544;BME280;8384;47.996;7.786;2023-02-23T04:50:19;98410.06;;;8.41;100.00
16544;BME280;8384;47.996;7.786;2023-02-23T04:52:45;98416.03;;;8.60;100.00
16544;BME280;8384;47.996;7.786;2023-02-23T04:55:16;98405.84;;;8.78;99.73
16544;BME280;8384;47.996;7.786;2023-02-23T04:57:42;98387.13;;;8.59;99.10
16544;BME280;8384;47.996;7.786;2023-02-23T05:00:08;98391.38;;;8.50;100.00
16544;BME280;8384;47.996;7.786;2023-02-23T05:02:33;98407.41;;;8.46;100.00
16544;BME280;8384;47.996;7.786;2023-02-23T05:04:59;98410.28;;;8.39;100.00
16544;BME280;8384;47.996;7.786;2023-02-23T05:07:24;98404.56;;;8.36;100.00
16544;BME280;8384;47.996;7.786;2023-02-23T05:09:49;98386.91;;;8.16;100.00
16544;BME280;8384;47.996;7.786;2023-02-23T05:12:14;98413.88;;;8.18;100.00
16544;BME280;8384;47.996;7.786;2023-02-23T05:14:40;98406.34;;;8.25;100.00
16544;BME280;8384;47.996;7.786;2023-02-23T05:17:05;98365.84;;;8.06;100.00
16544;BME280;8384;47.996;7.786;2023-02-23T05:19:31;98402.06;;;8.34;100.00
16544;BME280;8384;47.996;7.786;2023-02-23T05:21:56;98405.34;;;8.36;100.00
16544;BME280;8384;47.996;7.786;2023-02-23T05:24:21;98371.38;;;8.17;100.00
16544;BME280;8384;47.996;7.786;2023-02-23T05:26:47;98379.09;;;8.25;100.00
16544;BME280;8384;47.996;7.786;2023-02-23T05:29:12;98373.72;;;8.30;100.00
16544;BME280;8384;47.996;7.786;2023-02-23T05:31:38;98405.75;;;8.45;100.00
16544;BME280;8384;47.996;7.786;2023-02-23T05:34:03;98401.38;;;8.44;100.00
16544;BME280;8384;47.996;7.786;2023-02-23T05:36:28;98406.16;;;8.54;100.00
16544;BME280;8384;47.996;7.786;2023-02-23T05:38:53;98385.28;;;8.43;100.00
16544;BME280;8384;47.996;7.786;2023-02-23T05:41:21;98413.31;;;8.65;100.00
16544;BME280;8384;47.996;7.786;2023-02-23T05:43:48;98413.75;;;8.52;100.00
16544;BME280;8384;47.996;7.786;2023-02-23T05:46:19;98410.81;;;8.59;100.00
16544;BME280;8384;47.996;7.786;2023-02-23T05:48:44;98408.09;;;8.36;100.00
16544;BME280;8384;47.996;7.786;2023-02-23T05:51:12;98395.38;;;7.98;100.00
16544;BME280;8384;47.996;7.786;2023-02-23T05:53:38;98412.63;;;8.03;100.00
16544;BME280;8384;47.996;7.786;2023-02-23T05:56:05;98412.34;;;8.05;100.00
16544;BME280;8384;47.996;7.786;2023-02-23T05:58:30;98414.94;;;8.17;100.00
16544;BME280;8384;47.996;7.786;2023-02-23T06:00:56;98413.66;;;8.24;100.00
16544;BME280;8384;47.996;7.786;2023-02-23T06:03:22;98387.72;;;8.17;100.00
16544;BME280;8384;47.996;7.786;2023-02-23T06:05:49;98410.81;;;8.36;100.00
16544;BME280;8384;47.996;7.786;2023-02-23T06:08:14;98411.88;;;8.35;100.00
16544;BME280;8384;47.996;7.786;2023-02-23T06:10:40;98397.97;;;8.54;100.00
16544;BME280;8384;47.996;7.786;2023-02-23T06:13:05;98408.09;;;8.59;100.00
16544;BME280;8384;47.996;7.786;2023-02-23T06:15:30;98418.03;;;8.48;100.00
16544;BME280;8384;47.996;7.786;2023-02-23T06:17:55;98419.88;;;8.42;100.00
16544;BME280;8384;47.996;7.786;2023-02-23T06:20:21;98379.25;;;8.13;100.00
16544;BME280;8384;47.996;7.786;2023-02-23T06:22:46;98421.47;;;8.38;100.00
16544;BME280;8384;47.996;7.786;2023-02-23T06:25:12;98398.44;;;8.01;100.00
16544;BME280;8384;47.996;7.786;2023-02-23T06:27:38;98424.28;;;7.81;100.00
16544;BME280;8384;47.996;7.786;2023-02-23T06:30:04;98431.66;;;7.64;100.00
16544;BME280;8384;47.996;7.786;2023-02-23T06:32:30;98423.38;;;7.37;100.00
16544;BME280;8384;47.996;7.786;2023-02-23T06:34:55;98439.22;;;7.40;100.00
16544;BME280;8384;47.996;7.786;2023-02-23T06:37:21;98417.50;;;7.45;100.00
16544;BME280;8384;47.996;7.786;2023-02-23T06:39:46;98436.31;;;7.86;100.00
16544;BME280;8384;47.996;7.786;2023-02-23T06:42:11;98443.56;;;8.19;100.00
16544;BME280;8384;47.996;7.786;2023-02-23T06:44:37;98446.72;;;8.11;100.00
16544;BME280;8384;47.996;7.786;2023-02-23T06:47:04;98431.09;;;8.01;100.00
16544;BME280;8384;47.996;7.786;2023-02-23T06:49:30;98453.13;;;8.22;100.00
16544;BME280;8384;47.996;7.786;2023-02-23T06:51:55;98449.31;;;8.01;100.00
16544;BME280;8384;47.996;7.786;2023-02-23T06:54:21;98442.06;;;8.06;100.00
16544;BME280;8384;47.996;7.786;2023-02-23T06:56:47;98445.72;;;8.17;100.00
16544;BME280;8384;47.996;7.786;2023-02-23T06:59:14;98429.53;;;8.05;100.00
16544;BME280;8384;47.996;7.786;2023-02-23T07:01:39;98446.91;;;8.26;100.00
16544;BME280;8384;47.996;7.786;2023-02-23T07:04:06;98460.16;;;8.40;100.00
16544;BME280;8384;47.996;7.786;2023-02-23T07:06:32;98431.97;;;8.29;100.00
16544;BME280;8384;47.996;7.786;2023-02-23T07:08:57;98464.44;;;8.53;100.00
16544;BME280;8384;47.996;7.786;2023-02-23T07:11:23;98443.50;;;8.59;100.00
16544;BME280;8384;47.996;7.786;2023-02-23T07:13:48;98458.13;;;8.75;100.00
16544;BME280;8384;47.996;7.786;2023-02-23T07:16:14;98415.31;;;8.48;100.00
16544;BME280;8384;47.996;7.786;2023-02-23T07:18:50;98474.91;;;8.66;100.00
16544;BME280;8384;47.996;7.786;2023-02-23T07:21:19;98472.63;;;8.80;100.00
16544;BME280;8384;47.996;7.786;2023-02-23T07:23:48;98398.16;;;8.47;100.00
16544;BME280;8384;47.996;7.786;2023-02-23T07:26:15;98426.56;;;8.79;100.00
16544;BME280;8384;47.996;7.786;2023-02-23T07:28:41;98361.91;;;8.47;100.00
16544;BME280;8384;47.996;7.786;2023-02-23T07:31:10;98382.09;;;8.78;100.00
16544;BME280;8384;47.996;7.786;2023-02-23T07:33:35;98414.13;;;8.93;100.00
16544;BME280;8384;47.996;7.786;2023-02-23T07:36:00;98342.59;;;8.48;100.00
16544;BME280;8384;47.996;7.786;2023-02-23T07:38:26;98361.38;;;8.77;100.00
16544;BME280;8384;47.996;7.786;2023-02-23T07:40:51;98472.72;;;9.51;100.00
16544;BME280;8384;47.996;7.786;2023-02-23T07:43:17;98474.91;;;9.54;100.00
16544;BME280;8384;47.996;7.786;2023-02-23T07:45:47;98479.81;;;9.52;100.00
16544;BME280;8384;47.996;7.786;2023-02-23T07:48:13;98448.22;;;9.23;100.00
16544;BME280;8384;47.996;7.786;2023-02-23T07:50:39;98422.72;;;9.07;100.00
16544;BME280;8384;47.996;7.786;2023-02-23T07:53:05;98389.94;;;8.97;100.00
16544;BME280;8384;47.996;7.786;2023-02-23T07:55:31;98318.53;;;8.67;100.00
16544;BME280;8384;47.996;7.786;2023-02-23T07:57:59;98485.22;;;9.84;100.00
16544;BME280;8384;47.996;7.786;2023-02-23T08:00:31;98487.69;;;9.86;100.00
16544;BME280;8384;47.996;7.786;2023-02-23T08:02:58;98412.88;;;9.39;100.00
16544;BME280;8384;47.996;7.786;2023-02-23T08:05:24;98365.13;;;8.98;100.00
16544;BME280;8384;47.996;7.786;2023-02-23T08:07:50;98488.00;;;9.52;100.00
16544;BME280;8384;47.996;7.786;2023-02-23T08:10:18;98365.28;;;8.87;100.00
16544;BME280;8384;47.996;7.786;2023-02-23T08:12:44;98441.81;;;9.45;100.00
16544;BME280;8384;47.996;7.786;2023-02-23T08:15:09;98340.47;;;8.83;100.00
16544;BME280;8384;47.996;7.786;2023-02-23T08:17:41;98441.69;;;9.62;100.00
16544;BME280;8384;47.996;7.786;2023-02-23T08:20:08;98382.00;;;9.33;100.00
16544;BME280;8384;47.996;7.786;2023-02-23T08:22:39;98469.47;;;9.97;100.00
16544;BME280;8384;47.996;7.786;2023-02-23T08:25:11;98385.25;;;9.30;100.00
16544;BME280;8384;47.996;7.786;2023-02-23T08:27:37;98401.44;;;9.42;100.00
16544;BME280;8384;47.996;7.786;2023-02-23T08:30:10;98504.50;;;10.10;100.00
16544;BME280;8384;47.996;7.786;2023-02-23T08:32:36;98391.75;;;9.67;100.00
16544;BME280;8384;47.996;7.786;2023-02-23T08:35:01;98329.09;;;9.34;100.00
16544;BME280;8384;47.996;7.786;2023-02-23T08:37:27;98375.38;;;9.67;100.00
16544;BME280;8384;47.996;7.786;2023-02-23T08:39:56;98425.88;;;10.23;100.00
16544;BME280;8384;47.996;7.786;2023-02-23T08:42:22;98462.13;;;10.61;100.00
16544;BME280;8384;47.996;7.786;2023-02-23T08:44:47;98427.69;;;10.55;100.00
16544;BME280;8384;47.996;7.786;2023-02-23T08:47:21;98492.06;;;11.09;100.00
16544;BME280;8384;47.996;7.786;2023-02-23T08:49:49;98486.88;;;11.23;99.87
16544;BME280;8384;47.996;7.786;2023-02-23T08:52:15;98376.59;;;10.71;97.72
16544;BME280;8384;47.996;7.786;2023-02-23T08:54:40;98455.97;;;11.48;93.36
16544;BME280;8384;47.996;7.786;2023-02-23T08:57:05;98512.06;;;11.92;90.80
16544;BME280;8384;47.996;7.786;2023-02-23T08:59:31;98392.50;;;11.10;91.11
16544;BME280;8384;47.996;7.786;2023-02-23T09:01:56;98357.50;;;10.81;91.49
16544;BME280;8384;47.996;7.786;2023-02-23T09:04:22;98494.81;;;11.87;91.60
16544;BME280;8384;47.996;7.786;2023-02-23T09:06:47;98364.31;;;11.25;90.51
16544;BME280;8384;47.996;7.786;2023-02-23T09:09:14;98449.06;;;11.97;89.87
16544;BME280;8384;47.996;7.786;2023-02-23T09:11:47;98430.69;;;11.98;88.07
16544;BME280;8384;47.996;7.786;2023-02-23T09:14:12;98505.94;;;12.42;87.33
16544;BME280;8384;47.996;7.786;2023-02-23T09:16:38;98464.88;;;12.26;86.59
16544;BME280;8384;47.996;7.786;2023-02-23T09:19:03;98498.50;;;12.53;84.12
16544;BME280;8384;47.996;7.786;2023-02-23T09:21:34;98503.97;;;12.48;82.31
16544;BME280;8384;47.996;7.786;2023-02-23T09:24:00;98510.78;;;12.66;80.92
16544;BME280;8384;47.996;7.786;2023-02-23T09:26:28;98408.53;;;11.94;80.57
16544;BME280;8384;47.996;7.786;2023-02-23T09:29:00;98419.88;;;12.38;77.81
16544;BME280;8384;47.996;7.786;2023-02-23T09:31:32;98513.53;;;12.60;79.33
16544;BME280;8384;47.996;7.786;2023-02-23T09:34:00;98513.25;;;12.67;76.45
16544;BME280;8384;47.996;7.786;2023-02-23T09:36:31;98514.19;;;12.32;79.17
16544;BME280;8384;47.996;7.786;2023-02-23T09:38:59;98525.75;;;12.13;77.68
16544;BME280;8384;47.996;7.786;2023-02-23T09:41:37;98510.34;;;12.33;78.35
16544;BME280;8384;47.996;7.786;2023-02-23T09:46:51;98503.09;;;12.63;79.35
16544;BME280;8384;47.996;7.786;2023-02-23T09:49:24;98467.34;;;12.23;78.43
16544;BME280;8384;47.996;7.786;2023-02-23T09:51:54;98499.91;;;13.00;78.36
16544;BME280;8384;47.996;7.786;2023-02-23T09:54:24;98508.25;;;12.74;76.06
16544;BME280;8384;47.996;7.786;2023-02-23T09:56:58;98455.94;;;12.66;77.25
16544;BME280;8384;47.996;7.786;2023-02-23T09:59:29;98476.66;;;12.87;76.61
16544;BME280;8384;47.996;7.786;2023-02-23T10:05:03;98509.81;;;13.41;78.98
16544;BME280;8384;47.996;7.786;2023-02-23T10:07:45;98495.28;;;12.90;74.63
16544;BME280;8384;47.996;7.786;2023-02-23T10:10:37;98413.00;;;12.90;72.78
16544;BME280;8384;47.996;7.786;2023-02-23T10:13:14;98501.34;;;13.72;73.93
16544;BME280;8384;47.996;7.786;2023-02-23T10:15:51;98452.84;;;13.23;73.19
16544;BME280;8384;47.996;7.786;2023-02-23T10:18:53;98497.59;;;13.92;70.35
16544;BME280;8384;47.996;7.786;2023-02-23T10:24:17;98457.22;;;14.42;66.36
16544;BME280;8384;47.996;7.786;2023-02-23T10:26:56;98468.47;;;14.64;67.02
16544;BME280;8384;47.996;7.786;2023-02-23T10:29:35;98474.78;;;13.62;66.56
16544;BME280;8384;47.996;7.786;2023-02-23T10:32:26;98487.13;;;14.67;66.79
16544;BME280;8384;47.996;7.786;2023-02-23T10:35:11;98483.00;;;15.27;62.54
16544;BME280;8384;47.996;7.786;2023-02-23T10:37:36;98492.31;;;15.12;64.07
16544;BME280;8384;47.996;7.786;2023-02-23T10:40:05;98494.56;;;14.91;61.47
16544;BME280;8384;47.996;7.786;2023-02-23T10:42:31;98441.78;;;14.65;63.25
16544;BME280;8384;47.996;7.786;2023-02-23T10:44:57;98489.19;;;14.81;64.53
16544;BME280;8384;47.996;7.786;2023-02-23T10:47:26;98491.19;;;14.51;64.04
16544;BME280;8384;47.996;7.786;2023-02-23T10:49:55;98490.50;;;14.16;68.11
16544;BME280;8384;47.996;7.786;2023-02-23T10:52:28;98490.34;;;14.75;64.86
16544;BME280;8384;47.996;7.786;2023-02-23T10:54:57;98486.31;;;14.67;63.14
16544;BME280;8384;47.996;7.786;2023-02-23T10:57:32;98465.91;;;14.73;63.66
16544;BME280;8384;47.996;7.786;2023-02-23T11:02:45;98490.00;;;14.33;66.35
16544;BME280;8384;47.996;7.786;2023-02-23T11:05:28;98457.44;;;13.67;66.88
16544;BME280;8384;47.996;7.786;2023-02-23T11:08:10;98418.84;;;14.07;65.93
16544;BME280;8384;47.996;7.786;2023-02-23T11:10:35;98473.38;;;14.67;64.98
16544;BME280;8384;47.996;7.786;2023-02-23T11:13:01;98415.91;;;14.66;61.37
16544;BME280;8384;47.996;7.786;2023-02-23T11:15:29;98482.41;;;14.73;61.35
16544;BME280;8384;47.996;7.786;2023-02-23T11:18:01;98473.19;;;14.83;61.21
16544;BME280;8384;47.996;7.786;2023-02-23T11:20:46;98481.22;;;14.31;63.50
16544;BME280;8384;47.996;7.786;2023-02-23T11:23:31;98475.81;;;14.74;62.44
16544;BME280;8384;47.996;7.786;2023-02-23T11:26:00;98459.31;;;14.25;62.54
16544;BME280;8384;47.996;7.786;2023-02-23T11:28:30;98480.19;;;14.02;63.07
16544;BME280;8384;47.996;7.786;2023-02-23T11:31:18;98483.81;;;14.22;64.07
16544;BME280;8384;47.996;7.786;2023-02-23T11:33:45;98431.47;;;14.08;61.98
16544;BME280;8384;47.996;7.786;2023-02-23T11:39:20;98473.84;;;14.75;60.28
16544;BME280;8384;47.996;7.786;2023-02-23T11:42:07;98464.56;;;14.90;61.66
16544;BME280;8384;47.996;7.786;2023-02-23T11:44:37;98475.28;;;15.10;60.31
16544;BME280;8384;47.996;7.786;2023-02-23T11:47:02;98463.38;;;15.15;59.28
16544;BME280;8384;47.996;7.786;2023-02-23T11:49:31;98473.22;;;15.02;59.56
16544;BME280;8384;47.996;7.786;2023-02-23T11:52:17;98470.22;;;15.37;58.30
16544;BME280;8384;47.996;7.786;2023-02-23T11:55:01;98308.63;;;14.85;56.88
16544;BME280;8384;47.996;7.786;2023-02-23T11:57:33;98459.59;;;16.24;55.77
16544;BME280;8384;47.996;7.786;2023-02-23T12:00:07;98460.94;;;16.13;55.74
16544;BME280;8384;47.996;7.786;2023-02-23T12:02:47;98419.25;;;16.00;55.15
16544;BME280;8384;47.996;7.786;2023-02-23T12:05:21;98465.16;;;15.06;57.43
16544;BME280;8384;47.996;7.786;2023-02-23T12:10:37;98417.72;;;14.32;59.18
16544;BME280;8384;47.996;7.786;2023-02-23T12:16:09;98450.69;;;14.57;59.52
16544;BME280;8384;47.996;7.786;2023-02-23T12:18:46;98448.75;;;14.57;59.38
16544;BME280;8384;47.996;7.786;2023-02-23T12:21:44;98451.97;;;14.64;59.24
16544;BME280;8384;47.996;7.786;2023-02-23T12:27:03;98439.66;;;15.00;57.51
16544;BME280;8384;47.996;7.786;2023-02-23T12:32:12;98417.09;;;15.50;54.41
16544;BME280;8384;47.996;7.786;2023-02-23T12:35:09;98449.44;;;15.25;54.04
16544;BME280;8384;47.996;7.786;2023-02-23T12:37:43;98415.34;;;15.07;53.71
16544;BME280;8384;47.996;7.786;2023-02-23T12:40:14;98430.69;;;15.27;54.65
16544;BME280;8384;47.996;7.786;2023-02-23T12:43:32;98433.09;;;15.15;54.00
16544;BME280;8384;47.996;7.786;2023-02-23T12:45:48;98433.94;;;14.53;57.14
16544;BME280;8384;47.996;7.786;2023-02-23T12:51:35;98444.38;;;14.32;56.40
16544;BME280;8384;47.996;7.786;2023-02-23T12:54:03;98400.66;;;14.11;56.76
16544;BME280;8384;47.996;7.786;2023-02-23T12:59:53;98423.47;;;14.79;57.34
16544;BME280;8384;47.996;7.786;2023-02-23T13:02:02;98346.97;;;14.38;56.99
16544;BME280;8384;47.996;7.786;2023-02-23T13:04:43;98431.66;;;14.60;58.64
16544;BME280;8384;47.996;7.786;2023-02-23T13:10:36;98423.38;;;15.70;56.49
16544;BME280;8384;47.996;7.786;2023-02-23T13:19:21;98422.00;;;15.86;53.99
16544;BME280;8384;47.996;7.786;2023-02-23T13:21:53;98412.06;;;15.85;53.96
16544;BME280;8384;47.996;7.786;2023-02-23T13:24:25;98351.69;;;15.28;54.25
16544;BME280;8384;47.996;7.786;2023-02-23T13:26:59;98411.13;;;15.62;55.18
16544;BME280;8384;47.996;7.786;2023-02-23T13:29:34;98406.09;;;15.64;54.08
16544;BME280;8384;47.996;7.786;2023-02-23T13:32:02;98403.78;;;16.69;52.35
16544;BME280;8384;47.996;7.786;2023-02-23T13:34:35;98408.88;;;15.78;52.91
16544;BME280;8384;47.996;7.786;2023-02-23T13:37:05;98413.28;;;16.63;50.04
16544;BME280;8384;47.996;7.786;2023-02-23T13:39:55;98396.44;;;15.67;50.37
16544;BME280;8384;47.996;7.786;2023-02-23T13:45:26;98405.56;;;16.37;51.56
16544;BME280;8384;47.996;7.786;2023-02-23T13:48:02;98390.19;;;17.32;49.08
16544;BME280;8384;47.996;7.786;2023-02-23T13:50:55;98356.94;;;17.78;47.71
16544;BME280;8384;47.996;7.786;2023-02-23T13:56:16;98407.81;;;16.86;47.71
16544;BME280;8384;47.996;7.786;2023-02-23T13:58:59;98364.09;;;16.79;47.94
16544;BME280;8384;47.996;7.786;2023-02-23T14:01:31;98405.56;;;16.23;48.70
16544;BME280;8384;47.996;7.786;2023-02-23T14:03:59;98409.16;;;16.10;46.79
16544;BME280;8384;47.996;7.786;2023-02-23T14:06:27;98372.34;;;15.58;48.46
16544;BME280;8384;47.996;7.786;2023-02-23T14:09:07;98389.53;;;16.25;48.37
16544;BME280;8384;47.996;7.786;2023-02-23T14:11:45;98405.88;;;17.00;46.88
16544;BME280;8384;47.996;7.786;2023-02-23T14:20:13;98405.47;;;17.16;44.39
16544;BME280;8384;47.996;7.786;2023-02-23T14:23:13;98405.03;;;17.22;45.14
16544;BME280;8384;47.996;7.786;2023-02-23T14:31:19;98394.38;;;17.84;43.35
16544;BME280;8384;47.996;7.786;2023-02-23T14:41:30;98385.53;;;17.73;44.70
16544;BME280;8384;47.996;7.786;2023-02-23T14:44:35;98378.53;;;17.76;43.75
16544;BME280;8384;47.996;7.786;2023-02-23T14:47:14;98379.78;;;17.61;44.66
16544;BME280;8384;47.996;7.786;2023-02-23T14:49:53;98387.53;;;17.27;46.12
16544;BME280;8384;47.996;7.786;2023-02-23T14:52:34;98360.13;;;16.71;46.46
16544;BME280;8384;47.996;7.786;2023-02-23T14:57:41;98383.00;;;17.08;45.19
16544;BME280;8384;47.996;7.786;2023-02-23T15:00:31;98342.06;;;16.88;45.20
16544;BME280;8384;47.996;7.786;2023-02-23T15:03:05;98235.69;;;15.99;43.82
16544;BME280;8384;47.996;7.786;2023-02-23T15:05:36;98356.03;;;16.32;44.29
16544;BME280;8384;47.996;7.786;2023-02-23T15:08:07;98395.97;;;16.21;44.86
16544;BME280;8384;47.996;7.786;2023-02-23T15:10:40;98295.09;;;15.50;45.06
16544;BME280;8384;47.996;7.786;2023-02-23T15:13:31;98334.50;;;15.92;45.98
16544;BME280;8384;47.996;7.786;2023-02-23T15:16:02;98293.44;;;15.35;47.03
16544;BME280;8384;47.996;7.786;2023-02-23T15:21:53;98362.00;;;14.46;60.93
16544;BME280;8384;47.996;7.786;2023-02-23T15:24:26;98320.66;;;14.51;61.31
16544;BME280;8384;47.996;7.786;2023-02-23T15:26:53;98395.91;;;14.60;62.53